Time,TemperatureF,DewpointF,PressureIn,WindDirection,WindDirectionDegrees,WindSpeedMPH,WindSpeedGustMPH,Humidity,HourlyPrecipIn,Conditions,Clouds,dailyrainin,SoftwareType,DateUTC
2013-02-24 00:00:00,26.6,23.8,30.07,North,355,1.0,5.0,89,0.00,,,0.00,WUHU216DAVISVP2,2013-02-24 07:00:00,
2013-02-24 00:05:00,26.6,24.1,30.07,NNE,14,1.0,5.0,90,0.00,,,0.00,WUHU216DAVISVP2,2013-02-24 07:05:00,
2013-02-24 00:10:00,26.6,24.3,30.07,NNE,12,2.0,4.0,91,0.00,,,0.00,WUHU216DAVISVP2,2013-02-24 07:10:00,
2013-02-24 00:15:00,26.6,24.3,30.06,NNE,21,0.0,4.0,91,0.00,,,0.00,WUHU216DAVISVP2,2013-02-24 07:15:00,
2013-02-24 00:20:00,26.6,24.3,30.07,NNE,21,0.0,4.0,91,0.00,,,0.00,WUHU216DAVISVP2,2013-02-24 07:20:00,
2013-02-24 00:25:00,26.5,24.2,30.07,NNE,26,0.0,1.0,91,0.00,,,0.00,WUHU216DAVISVP2,2013-02-24 07:25:00,
2013-02-24 00:30:00,26.4,23.8,30.07,WNW,293,0.0,4.0,90,0.00,,,0.00,WUHU216DAVISVP2,2013-02-24 07:30:00,
2013-02-24 00:35:00,26.4,24.1,30.07,NW,320,0.0,4.0,91,0.00,,,0.00,WUHU216DAVISVP2,2013-02-24 07:35:00,
2013-02-24 00:40:00,26.4,24.1,30.06,NNE,30,0.0,3.0,91,0.00,,,0.00,WUHU216DAVISVP2,2013-02-24 07:40:00,
2013-02-24 00:45:00,26.3,24.0,30.06,NNE,27,0.0,3.0,91,0.00,,,0.00,WUHU216DAVISVP2,2013-02-24 07:45:00,
2013-02-24 00:50:00,26.3,23.7,30.06,NNE,30,0.0,1.0,90,0.00,,,0.00,WUHU216DAVISVP2,2013-02-24 07:50:00,
2013-02-24 00:55:00,26.3,23.7,30.06,North,355,0.0,1.0,90,0.00,,,0.00,WUHU216DAVISVP2,2013-02-24 07:55:00,
2013-02-24 01:00:00,26.2,23.6,30.07,NNW,331,1.0,2.0,90,0.00,,,0.00,WUHU216DAVISVP2,2013-02-24 08:00:00,
2013-02-24 01:05:00,26.1,23.5,30.06,NNW,343,0.0,3.0,90,0.00,,,0.00,WUHU216DAVISVP2,2013-02-24 08:05:00,
2013-02-24 01:10:00,26.1,23.5,30.06,NNW,340,0.0,4.0,90,0.00,,,0.00,WUHU216DAVISVP2,2013-02-24 08:10:00,
2013-02-24 01:15:00,26.1,23.6,30.06,NNW,348,0.0,4.0,90,0.00,,,0.00,WUHU216DAVISVP2,2013-02-24 08:15:00,
2013-02-24 01:20:00,26.0,23.5,30.06,North,5,2.0,3.0,90,0.00,,,0.00,WUHU216DAVISVP2,2013-02-24 08:20:00,
2013-02-24 01:25:00,26.0,23.4,30.06,NNW,328,1.0,5.0,90,0.00,,,0.00,WUHU216DAVISVP2,2013-02-24 08:25:00,
2013-02-24 01:30:00,25.9,23.3,30.06,NW,321,1.0,5.0,90,0.00,,,0.00,WUHU216DAVISVP2,2013-02-24 08:30:00,
2013-02-24 01:35:00,25.9,23.6,30.06,NW,313,0.0,3.0,91,0.00,,,0.00,WUHU216DAVISVP2,2013-02-24 08:35:00,
2013-02-24 01:40:00,25.8,23.5,30.06,North,355,1.0,3.0,91,0.00,,,0.00,WUHU216DAVISVP2,2013-02-24 08:40:00,
2013-02-24 01:45:00,25.8,23.5,30.06,NNW,337,0.0,3.0,91,0.00,,,0.00,WUHU216DAVISVP2,2013-02-24 08:45:00,
2013-02-24 01:50:00,25.8,23.7,30.06,NNW,344,0.0,2.0,92,0.00,,,0.00,WUHU216DAVISVP2,2013-02-24 08:50:00,
2013-02-24 01:55:00,25.8,23.7,30.05,NNW,344,3.0,3.0,92,0.00,,,0.00,WUHU216DAVISVP2,2013-02-24 08:55:00,
2013-02-24 02:00:00,25.6,23.5,30.05,North,355,1.0,4.0,92,0.00,,,0.00,WUHU216DAVISVP2,2013-02-24 09:00:00,
2013-02-24 02:05:00,25.6,23.5,30.05,NNW,341,4.0,4.0,92,0.00,,,0.00,WUHU216DAVISVP2,2013-02-24 09:05:00,
2013-02-24 02:10:00,25.4,23.4,30.04,NE,50,1.0,5.0,92,0.00,,,0.00,WUHU216DAVISVP2,2013-02-24 09:10:00,
2013-02-24 02:15:00,25.3,23.3,30.04,NE,40,1.0,5.0,92,0.00,,,0.00,WUHU216DAVISVP2,2013-02-24 09:15:00,
2013-02-24 02:20:00,25.2,23.2,30.03,NE,47,0.0,2.0,92,0.00,,,0.00,WUHU216DAVISVP2,2013-02-24 09:20:00,
2013-02-24 02:25:00,25.0,23.0,30.02,ENE,70,0.0,2.0,92,0.00,,,0.00,WUHU216DAVISVP2,2013-02-24 09:25:00,
2013-02-24 02:30:00,24.9,22.9,30.02,East,86,0.0,1.0,92,0.00,,,0.00,WUHU216DAVISVP2,2013-02-24 09:30:00,
2013-02-24 02:35:00,24.7,22.7,30.02,ENE,78,0.0,0.0,92,0.00,,,0.00,WUHU216DAVISVP2,2013-02-24 09:35:00,
2013-02-24 02:40:00,24.7,22.7,30.02,ENE,78,0.0,0.0,92,0.00,,,0.00,WUHU216DAVISVP2,2013-02-24 09:40:00,
2013-02-24 02:45:00,24.7,22.7,30.02,ENE,78,0.0,0.0,92,0.00,,,0.00,WUHU216DAVISVP2,2013-02-24 09:45:00,
2013-02-24 02:50:00,24.7,22.7,30.01,ENE,78,0.0,0.0,92,0.00,,,0.00,WUHU216DAVISVP2,2013-02-24 09:50:00,
2013-02-24 02:55:00,24.7,22.7,30.00,SSE,159,0.0,1.0,92,0.00,,,0.00,WUHU216DAVISVP2,2013-02-24 09:55:00,
2013-02-24 03:00:00,24.7,22.7,30.00,SSE,167,0.0,1.0,92,0.00,,,0.00,WUHU216DAVISVP2,2013-02-24 10:00:00,
2013-02-24 03:05:00,24.5,22.5,30.00,SSW,199,0.0,1.0,92,0.00,,,0.00,WUHU216DAVISVP2,2013-02-24 10:05:00,
2013-02-24 03:10:00,24.5,22.5,29.99,SSW,199,0.0,1.0,92,0.00,,,0.00,WUHU216DAVISVP2,2013-02-24 10:10:00,
2013-02-24 03:15:00,24.4,22.4,29.98,SSW,199,0.0,1.0,92,0.00,,,0.00,WUHU216DAVISVP2,2013-02-24 10:15:00,
2013-02-24 03:20:00,24.2,21.9,29.98,SSW,199,0.0,1.0,91,0.00,,,0.00,WUHU216DAVISVP2,2013-02-24 10:20:00,
2013-02-24 03:25:00,23.9,21.6,29.98,SSW,199,0.0,0.0,91,0.00,,,0.00,WUHU216DAVISVP2,2013-02-24 10:25:00,
2013-02-24 03:30:00,23.7,21.7,29.98,SSW,199,0.0,1.0,92,0.00,,,0.00,WUHU216DAVISVP2,2013-02-24 10:30:00,
2013-02-24 03:35:00,23.6,21.6,29.98,SSW,199,0.0,1.0,92,0.00,,,0.00,WUHU216DAVISVP2,2013-02-24 10:35:00,
2013-02-24 03:40:00,23.4,21.1,29.98,SSW,199,0.0,0.0,91,0.00,,,0.00,WUHU216DAVISVP2,2013-02-24 10:40:00,
2013-02-24 03:45:00,23.2,20.9,29.97,SSW,199,0.0,0.0,91,0.00,,,0.00,WUHU216DAVISVP2,2013-02-24 10:45:00,
2013-02-24 03:50:00,23.1,21.1,29.97,SSW,199,0.0,0.0,92,0.00,,,0.00,WUHU216DAVISVP2,2013-02-24 10:50:00,
2013-02-24 03:55:00,23.0,21.0,29.97,SSW,199,0.0,0.0,92,0.00,,,0.00,WUHU216DAVISVP2,2013-02-24 10:55:00,
2013-02-24 04:00:00,23.0,21.0,29.97,SSW,199,0.0,0.0,92,0.00,,,0.00,WUHU216DAVISVP2,2013-02-24 11:00:00,
2013-02-24 04:05:00,23.1,21.1,29.97,SSW,206,0.0,1.0,92,0.00,,,0.00,WUHU216DAVISVP2,2013-02-24 11:05:00,
2013-02-24 04:10:00,22.9,20.6,29.97,SW,221,1.0,1.0,91,0.00,,,0.00,WUHU216DAVISVP2,2013-02-24 11:10:00,
2013-02-24 04:15:00,22.8,20.5,29.97,SW,221,0.0,1.0,91,0.00,,,0.00,WUHU216DAVISVP2,2013-02-24 11:15:00,
2013-02-24 04:20:00,22.7,20.2,29.97,NW,307,0.0,1.0,90,0.00,,,0.00,WUHU216DAVISVP2,2013-02-24 11:20:00,
2013-02-24 04:25:00,22.8,19.7,29.97,North,360,1.0,3.0,88,0.00,,,0.00,WUHU216DAVISVP2,2013-02-24 11:25:00,
2013-02-24 04:30:00,22.8,19.5,29.97,NNW,342,0.0,3.0,87,0.00,,,0.00,WUHU216DAVISVP2,2013-02-24 11:30:00,
2013-02-24 04:35:00,22.8,19.5,29.97,NNW,342,0.0,3.0,87,0.00,,,0.00,WUHU216DAVISVP2,2013-02-24 11:35:00,
2013-02-24 04:40:00,22.7,19.1,29.97,WNW,296,0.0,3.0,86,0.00,,,0.00,WUHU216DAVISVP2,2013-02-24 11:40:00,
2013-02-24 04:45:00,22.5,18.6,29.98,NW,305,0.0,4.0,85,0.00,,,0.00,WUHU216DAVISVP2,2013-02-24 11:45:00,
2013-02-24 04:50:00,22.2,18.3,29.98,NNW,340,4.0,4.0,85,0.00,,,0.00,WUHU216DAVISVP2,2013-02-24 11:50:00,
2013-02-24 04:55:00,22.1,18.0,29.98,NNE,16,1.0,5.0,84,0.00,,,0.00,WUHU216DAVISVP2,2013-02-24 11:55:00,
2013-02-24 05:00:00,22.0,17.6,29.98,North,11,2.0,5.0,83,0.00,,,0.00,WUHU216DAVISVP2,2013-02-24 12:00:00,
2013-02-24 05:05:00,21.9,17.2,29.98,North,355,1.0,5.0,82,0.00,,,0.00,WUHU216DAVISVP2,2013-02-24 12:05:00,
2013-02-24 05:10:00,21.7,16.8,29.99,NNE,24,3.0,5.0,81,0.00,,,0.00,WUHU216DAVISVP2,2013-02-24 12:10:00,
2013-02-24 05:15:00,21.6,16.7,29.99,North,355,1.0,5.0,81,0.00,,,0.00,WUHU216DAVISVP2,2013-02-24 12:15:00,
2013-02-24 05:20:00,21.5,16.6,29.99,NNE,13,1.0,5.0,81,0.00,,,0.00,WUHU216DAVISVP2,2013-02-24 12:20:00,
2013-02-24 05:25:00,21.2,16.3,29.99,NNE,20,0.0,4.0,81,0.00,,,0.00,WUHU216DAVISVP2,2013-02-24 12:25:00,
2013-02-24 05:30:00,20.9,16.0,29.99,North,360,0.0,2.0,81,0.00,,,0.00,WUHU216DAVISVP2,2013-02-24 12:30:00,
2013-02-24 05:35:00,20.8,15.9,29.99,NNE,13,1.0,3.0,81,0.00,,,0.00,WUHU216DAVISVP2,2013-02-24 12:35:00,
2013-02-24 05:40:00,20.7,15.5,29.99,NNE,13,1.0,3.0,80,0.00,,,0.00,WUHU216DAVISVP2,2013-02-24 12:40:00,
2013-02-24 05:45:00,20.7,15.2,29.99,NNW,331,3.0,3.0,79,0.00,,,0.00,WUHU216DAVISVP2,2013-02-24 12:45:00,
2013-02-24 05:50:00,20.8,15.3,29.99,North,9,1.0,3.0,79,0.00,,,0.00,WUHU216DAVISVP2,2013-02-24 12:50:00,
2013-02-24 05:55:00,20.7,14.9,29.99,North,355,2.0,3.0,78,0.00,,,0.00,WUHU216DAVISVP2,2013-02-24 12:55:00,
2013-02-24 06:00:00,20.7,14.9,29.99,NNW,338,3.0,5.0,78,0.00,,,0.00,WUHU216DAVISVP2,2013-02-24 13:00:00,
2013-02-24 06:05:00,20.6,15.1,29.99,NNW,343,1.0,5.0,79,0.00,,,0.00,WUHU216DAVISVP2,2013-02-24 13:05:00,
2013-02-24 06:10:00,20.7,14.9,29.99,NW,325,2.0,5.0,78,0.00,,,0.00,WUHU216DAVISVP2,2013-02-24 13:10:00,
2013-02-24 06:15:00,20.7,14.9,29.99,NNW,333,2.0,5.0,78,0.00,,,0.00,WUHU216DAVISVP2,2013-02-24 13:15:00,
2013-02-24 06:20:00,20.7,14.9,30.00,North,355,0.0,5.0,78,0.00,,,0.00,WUHU216DAVISVP2,2013-02-24 13:20:00,
2013-02-24 06:25:00,20.6,14.8,30.00,North,360,0.0,5.0,78,0.00,,,0.00,WUHU216DAVISVP2,2013-02-24 13:25:00,
2013-02-24 06:30:00,20.6,14.8,30.00,NNW,346,1.0,6.0,78,0.00,,,0.00,WUHU216DAVISVP2,2013-02-24 13:30:00,
2013-02-24 06:35:00,20.6,14.6,30.00,NNE,15,3.0,7.0,77,0.00,,,0.00,WUHU216DAVISVP2,2013-02-24 13:35:00,
2013-02-24 06:40:00,20.6,14.6,30.00,NW,310,6.0,7.0,77,0.00,,,0.00,WUHU216DAVISVP2,2013-02-24 13:40:00,
2013-02-24 06:45:00,20.6,14.6,30.00,North,5,2.0,6.0,77,0.00,,,0.00,WUHU216DAVISVP2,2013-02-24 13:45:00,
2013-02-24 06:50:00,20.7,14.4,30.00,WNW,288,4.0,8.0,76,0.00,,,0.00,WUHU216DAVISVP2,2013-02-24 13:50:00,
2013-02-24 06:55:00,20.7,14.1,30.01,North,349,2.0,8.0,75,0.00,,,0.00,WUHU216DAVISVP2,2013-02-24 13:55:00,
2013-02-24 07:00:00,20.8,13.9,30.01,North,9,2.0,7.0,74,0.00,,,0.00,WUHU216DAVISVP2,2013-02-24 14:00:00,
2013-02-24 07:05:00,20.7,13.8,30.01,North,350,4.0,7.0,74,0.00,,,0.00,WUHU216DAVISVP2,2013-02-24 14:05:00,
2013-02-24 07:10:00,20.6,13.3,30.01,NNW,348,0.0,6.0,73,0.00,,,0.00,WUHU216DAVISVP2,2013-02-24 14:10:00,
2013-02-24 07:15:00,20.6,13.4,30.02,North,360,3.0,7.0,73,0.00,,,0.00,WUHU216DAVISVP2,2013-02-24 14:15:00,
2013-02-24 07:20:00,20.6,13.0,30.02,NNE,15,4.0,7.0,72,0.00,,,0.00,WUHU216DAVISVP2,2013-02-24 14:20:00,
2013-02-24 07:25:00,20.6,13.0,30.02,North,5,1.0,7.0,72,0.00,,,0.00,WUHU216DAVISVP2,2013-02-24 14:25:00,
2013-02-24 07:30:00,20.6,12.7,30.02,North,360,4.0,6.0,71,0.00,,,0.00,WUHU216DAVISVP2,2013-02-24 14:30:00,
2013-02-24 07:35:00,20.8,12.9,30.02,NW,313,1.0,7.0,71,0.00,,,0.00,WUHU216DAVISVP2,2013-02-24 14:35:00,
2013-02-24 07:40:00,20.9,12.7,30.02,North,355,2.0,7.0,70,0.00,,,0.00,WUHU216DAVISVP2,2013-02-24 14:40:00,
2013-02-24 07:45:00,21.1,12.6,30.02,NNW,339,5.0,10.0,69,0.00,,,0.00,WUHU216DAVISVP2,2013-02-24 14:45:00,
2013-02-24 07:50:00,21.3,12.4,30.02,North,350,8.0,11.0,68,0.00,,,0.00,WUHU216DAVISVP2,2013-02-24 14:50:00,
2013-02-24 07:55:00,21.7,12.5,30.03,NNW,342,9.0,11.0,67,0.00,,,0.00,WUHU216DAVISVP2,2013-02-24 14:55:00,
2013-02-24 08:00:00,22.0,12.1,30.03,North,360,10.0,13.0,65,0.00,,,0.00,WUHU216DAVISVP2,2013-02-24 15:00:00,
2013-02-24 08:05:00,22.3,12.0,30.04,North,5,2.0,13.0,64,0.00,,,0.00,WUHU216DAVISVP2,2013-02-24 15:05:00,
2013-02-24 08:10:00,22.6,11.9,30.04,NNW,340,8.0,14.0,63,0.00,,,0.00,WUHU216DAVISVP2,2013-02-24 15:10:00,
2013-02-24 08:15:00,22.9,11.8,30.04,NNW,345,5.0,14.0,62,0.00,,,0.00,WUHU216DAVISVP2,2013-02-24 15:15:00,
2013-02-24 08:53:00,25.1,11.2,30.05,North,355,6.0,6.0,55,0.00,,,0.00,WUHU216DAVISVP2,2013-02-24 15:53:00,
2013-02-24 08:58:00,25.2,11.7,30.05,NNE,26,6.0,14.0,56,0.00,,,0.00,WUHU216DAVISVP2,2013-02-24 15:58:00,
2013-02-24 09:03:00,25.5,11.6,30.06,West,279,10.0,14.0,55,0.00,,,0.00,WUHU216DAVISVP2,2013-02-24 16:03:00,
2013-02-24 09:08:00,25.9,11.9,30.06,NNW,329,8.0,13.0,55,0.00,,,0.00,WUHU216DAVISVP2,2013-02-24 16:08:00,
2013-02-24 09:13:00,26.1,11.7,30.06,WNW,294,12.0,18.0,54,0.00,,,0.00,WUHU216DAVISVP2,2013-02-24 16:13:00,
2013-02-24 09:18:00,26.2,11.4,30.06,NNW,338,2.0,18.0,53,0.00,,,0.00,WUHU216DAVISVP2,2013-02-24 16:18:00,
2013-02-24 09:23:00,26.2,11.4,30.06,NNW,327,10.0,20.0,53,0.00,,,0.00,WUHU216DAVISVP2,2013-02-24 16:23:00,
2013-02-24 09:28:00,26.5,11.6,30.06,NNW,333,13.0,20.0,53,0.00,,,0.00,WUHU216DAVISVP2,2013-02-24 16:28:00,
2013-02-24 09:33:00,26.6,11.3,30.06,NNE,17,12.0,16.0,52,0.00,,,0.00,WUHU216DAVISVP2,2013-02-24 16:33:00,
2013-02-24 09:38:00,26.6,11.3,30.06,NNW,335,12.0,19.0,52,0.00,,,0.00,WUHU216DAVISVP2,2013-02-24 16:38:00,
2013-02-24 09:43:00,26.7,10.9,30.06,North,5,9.0,19.0,51,0.00,,,0.00,WUHU216DAVISVP2,2013-02-24 16:43:00,
2013-02-24 09:48:00,26.8,11.0,30.06,North,355,15.0,21.0,51,0.00,,,0.00,WUHU216DAVISVP2,2013-02-24 16:48:00,
2013-02-24 09:53:00,26.6,10.4,30.06,NNW,342,10.0,21.0,50,0.00,,,0.00,WUHU216DAVISVP2,2013-02-24 16:53:00,
2013-02-24 09:58:00,27.2,11.4,30.06,NE,42,17.0,17.0,51,0.00,,,0.00,WUHU216DAVISVP2,2013-02-24 16:58:00,
2013-02-24 10:03:00,27.6,10.4,30.06,NNE,12,18.0,19.0,48,0.00,,,0.00,WUHU216DAVISVP2,2013-02-24 17:03:00,
2013-02-24 10:08:00,27.6,9.9,30.06,NE,44,7.0,25.0,47,0.00,,,0.00,WUHU216DAVISVP2,2013-02-24 17:08:00,
2013-02-24 10:13:00,27.8,10.1,30.07,North,355,13.0,25.0,47,0.00,,,0.00,WUHU216DAVISVP2,2013-02-24 17:13:00,
2013-02-24 10:18:00,27.8,10.1,30.07,NNW,329,14.0,23.0,47,0.00,,,0.00,WUHU216DAVISVP2,2013-02-24 17:18:00,
2013-02-24 10:23:00,28.4,10.6,30.07,NW,318,11.0,22.0,47,0.00,,,0.00,WUHU216DAVISVP2,2013-02-24 17:23:00,
2013-02-24 10:28:00,28.6,11.4,30.07,North,5,14.0,22.0,48,0.00,,,0.00,WUHU216DAVISVP2,2013-02-24 17:28:00,
2013-02-24 10:33:00,28.7,9.9,30.07,NNW,328,19.0,22.0,45,0.00,,,0.00,WUHU216DAVISVP2,2013-02-24 17:33:00,
2013-02-24 10:38:00,29.0,10.2,30.08,North,355,11.0,22.0,45,0.00,,,0.00,WUHU216DAVISVP2,2013-02-24 17:38:00,
2013-02-24 10:43:00,29.3,9.4,30.07,North,360,12.0,25.0,43,0.00,,,0.00,WUHU216DAVISVP2,2013-02-24 17:43:00,
2013-02-24 10:48:00,29.6,9.7,30.08,North,360,10.0,25.0,43,0.00,,,0.00,WUHU216DAVISVP2,2013-02-24 17:48:00,
2013-02-24 10:53:00,30.1,9.6,30.08,North,5,12.0,20.0,42,0.00,,,0.00,WUHU216DAVISVP2,2013-02-24 17:53:00,
2013-02-24 10:58:00,30.1,10.3,30.09,North,10,12.0,20.0,43,0.00,,,0.00,WUHU216DAVISVP2,2013-02-24 17:58:00,
2013-02-24 11:03:00,30.6,10.2,30.09,NNW,331,15.0,19.0,42,0.00,,,0.00,WUHU216DAVISVP2,2013-02-24 18:03:00,
2013-02-24 11:08:00,30.8,9.1,30.09,NNW,346,17.0,21.0,40,0.00,,,0.00,WUHU216DAVISVP2,2013-02-24 18:08:00,
2013-02-24 11:13:00,30.7,10.1,30.09,North,10,9.0,21.0,42,0.00,,,0.00,WUHU216DAVISVP2,2013-02-24 18:13:00,
2013-02-24 11:18:00,30.7,9.7,30.09,NNW,337,10.0,24.0,41,0.00,,,0.00,WUHU216DAVISVP2,2013-02-24 18:18:00,
2013-02-24 11:23:00,30.6,8.9,30.09,North,5,14.0,24.0,40,0.00,,,0.00,WUHU216DAVISVP2,2013-02-24 18:23:00,
2013-02-24 11:28:00,30.6,8.9,30.09,NE,46,15.0,22.0,40,0.00,,,0.00,WUHU216DAVISVP2,2013-02-24 18:28:00,
2013-02-24 11:33:00,30.8,9.1,30.09,NNW,327,16.0,21.0,40,0.00,,,0.00,WUHU216DAVISVP2,2013-02-24 18:33:00,
2013-02-24 11:38:00,31.3,10.3,30.09,NNE,22,14.0,24.0,41,0.00,,,0.00,WUHU216DAVISVP2,2013-02-24 18:38:00,
2013-02-24 11:43:00,31.3,10.7,30.09,NNE,19,8.0,24.0,42,0.00,,,0.00,WUHU216DAVISVP2,2013-02-24 18:43:00,
2013-02-24 11:48:00,31.3,8.4,30.09,NNE,13,16.0,18.0,38,0.00,,,0.00,WUHU216DAVISVP2,2013-02-24 18:48:00,
2013-02-24 11:53:00,31.6,10.0,30.08,NNE,21,11.0,21.0,40,0.00,,,0.00,WUHU216DAVISVP2,2013-02-24 18:53:00,
2013-02-24 11:58:00,31.7,9.3,30.08,NNE,22,12.0,21.0,39,0.00,,,0.00,WUHU216DAVISVP2,2013-02-24 18:58:00,
2013-02-24 12:03:00,32.0,8.6,30.09,North,355,6.0,23.0,37,0.00,,,0.00,WUHU216DAVISVP2,2013-02-24 19:03:00,
2013-02-24 12:08:00,32.9,9.8,30.09,North,360,12.0,23.0,38,0.00,,,0.00,WUHU216DAVISVP2,2013-02-24 19:08:00,
2013-02-24 12:13:00,33.1,8.8,30.09,North,10,6.0,21.0,36,0.00,,,0.00,WUHU216DAVISVP2,2013-02-24 19:13:00,
2013-02-24 12:18:00,33.2,10.1,30.09,NNW,346,11.0,23.0,38,0.00,,,0.00,WUHU216DAVISVP2,2013-02-24 19:18:00,
2013-02-24 12:23:00,32.7,8.4,30.09,NW,312,6.0,25.0,36,0.00,,,0.00,WUHU216DAVISVP2,2013-02-24 19:23:00,
2013-02-24 12:28:00,32.8,8.5,30.09,NNE,13,17.0,25.0,36,0.00,,,0.00,WUHU216DAVISVP2,2013-02-24 19:28:00,
2013-02-24 12:33:00,33.1,8.8,30.09,NNE,15,16.0,18.0,36,0.00,,,0.00,WUHU216DAVISVP2,2013-02-24 19:33:00,
2013-02-24 12:38:00,33.4,9.9,30.09,NW,321,5.0,18.0,37,0.00,,,0.00,WUHU216DAVISVP2,2013-02-24 19:38:00,
2013-02-24 12:43:00,32.9,8.0,30.10,NNE,30,14.0,20.0,35,0.00,,,0.00,WUHU216DAVISVP2,2013-02-24 19:43:00,
2013-02-24 12:48:00,33.2,8.3,30.10,NNW,346,14.0,20.0,35,0.00,,,0.00,WUHU216DAVISVP2,2013-02-24 19:48:00,
2013-02-24 12:53:00,32.6,7.1,30.10,North,5,12.0,19.0,34,0.00,,,0.00,WUHU216DAVISVP2,2013-02-24 19:53:00,
2013-02-24 12:58:00,33.0,7.4,30.09,NNE,20,8.0,16.0,34,0.00,,,0.00,WUHU216DAVISVP2,2013-02-24 19:58:00,
2013-02-24 13:03:00,33.2,6.3,30.10,NW,325,16.0,18.0,32,0.00,,,0.00,WUHU216DAVISVP2,2013-02-24 20:03:00,
2013-02-24 13:08:00,33.4,8.4,30.09,NNE,26,15.0,18.0,35,0.00,,,0.00,WUHU216DAVISVP2,2013-02-24 20:08:00,
2013-02-24 13:13:00,33.1,7.5,30.10,North,350,12.0,19.0,34,0.00,,,0.00,WUHU216DAVISVP2,2013-02-24 20:13:00,
2013-02-24 13:18:00,33.3,7.7,30.09,NE,55,13.0,19.0,34,0.00,,,0.00,WUHU216DAVISVP2,2013-02-24 20:18:00,
2013-02-24 13:23:00,34.2,7.2,30.10,NNW,338,12.0,18.0,32,0.00,,,0.00,WUHU216DAVISVP2,2013-02-24 20:23:00,
2013-02-24 13:28:00,33.6,5.9,30.09,North,355,5.0,18.0,31,0.00,,,0.00,WUHU216DAVISVP2,2013-02-24 20:28:00,
2013-02-24 13:33:00,34.5,7.4,30.10,NE,41,9.0,22.0,32,0.00,,,0.00,WUHU216DAVISVP2,2013-02-24 20:33:00,
2013-02-24 13:38:00,33.8,5.4,30.10,North,11,9.0,28.0,30,0.00,,,0.00,WUHU216DAVISVP2,2013-02-24 20:38:00,
2013-02-24 13:43:00,34.1,6.4,30.10,WNW,291,6.0,28.0,31,0.00,,,0.00,WUHU216DAVISVP2,2013-02-24 20:43:00,
2013-02-24 13:48:00,34.0,7.0,30.10,North,355,6.0,19.0,32,0.00,,,0.00,WUHU216DAVISVP2,2013-02-24 20:48:00,
2013-02-24 13:53:00,34.4,7.3,30.11,North,355,16.0,19.0,32,0.00,,,0.00,WUHU216DAVISVP2,2013-02-24 20:53:00,
2013-02-24 13:58:00,34.3,7.9,30.10,NNE,17,19.0,27.0,33,0.00,,,0.00,WUHU216DAVISVP2,2013-02-24 20:58:00,
2013-02-24 14:03:00,33.7,6.0,30.10,North,360,9.0,27.0,31,0.00,,,0.00,WUHU216DAVISVP2,2013-02-24 21:03:00,
2013-02-24 14:08:00,34.3,6.5,30.10,NNW,337,9.0,26.0,31,0.00,,,0.00,WUHU216DAVISVP2,2013-02-24 21:08:00,
2013-02-24 14:13:00,34.7,5.5,30.11,ENE,66,10.0,24.0,29,0.00,,,0.00,WUHU216DAVISVP2,2013-02-24 21:13:00,
2013-02-24 14:18:00,34.9,6.4,30.10,North,5,11.0,24.0,30,0.00,,,0.00,WUHU216DAVISVP2,2013-02-24 21:18:00,
2013-02-24 14:23:00,35.3,8.1,30.11,NE,36,13.0,20.0,32,0.00,,,0.00,WUHU216DAVISVP2,2013-02-24 21:23:00,
2013-02-24 14:28:00,35.2,8.0,30.10,NE,39,19.0,22.0,32,0.00,,,0.00,WUHU216DAVISVP2,2013-02-24 21:28:00,
2013-02-24 14:33:00,35.5,6.2,30.11,NNW,347,25.0,25.0,29,0.00,,,0.00,WUHU216DAVISVP2,2013-02-24 21:33:00,
2013-02-24 14:38:00,35.7,7.8,30.11,North,11,10.0,25.0,31,0.00,,,0.00,WUHU216DAVISVP2,2013-02-24 21:38:00,
2013-02-24 14:43:00,35.9,8.0,30.12,North,10,5.0,21.0,31,0.00,,,0.00,WUHU216DAVISVP2,2013-02-24 21:43:00,
2013-02-24 14:48:00,35.4,6.8,30.12,NNW,339,16.0,20.0,30,0.00,,,0.00,WUHU216DAVISVP2,2013-02-24 21:48:00,
2013-02-24 14:53:00,34.8,5.5,30.12,NW,324,10.0,20.0,29,0.00,,,0.00,WUHU216DAVISVP2,2013-02-24 21:53:00,
2013-02-24 14:58:00,35.4,6.8,30.13,NNW,342,11.0,17.0,30,0.00,,,0.00,WUHU216DAVISVP2,2013-02-24 21:58:00,
2013-02-24 15:03:00,36.0,7.3,30.13,North,10,15.0,21.0,30,0.00,,,0.00,WUHU216DAVISVP2,2013-02-24 22:03:00,
2013-02-24 15:08:00,36.5,7.0,30.12,NE,34,14.0,21.0,29,0.00,,,0.00,WUHU216DAVISVP2,2013-02-24 22:08:00,
2013-02-24 15:13:00,36.5,7.0,30.13,NNW,348,13.0,21.0,29,0.00,,,0.00,WUHU216DAVISVP2,2013-02-24 22:13:00,
2013-02-24 15:18:00,36.4,6.9,30.13,NNW,329,11.0,21.0,29,0.00,,,0.00,WUHU216DAVISVP2,2013-02-24 22:18:00,
2013-02-24 15:23:00,36.8,6.5,30.13,North,360,13.0,22.0,28,0.00,,,0.00,WUHU216DAVISVP2,2013-02-24 22:23:00,
2013-02-24 15:28:00,36.9,7.4,30.13,NE,52,7.0,22.0,29,0.00,,,0.00,WUHU216DAVISVP2,2013-02-24 22:28:00,
2013-02-24 15:33:00,37.3,8.5,30.13,NNE,31,6.0,17.0,30,0.00,,,0.00,WUHU216DAVISVP2,2013-02-24 22:33:00,
2013-02-24 15:38:00,37.2,6.9,30.14,NNW,345,13.0,17.0,28,0.00,,,0.00,WUHU216DAVISVP2,2013-02-24 22:38:00,
2013-02-24 15:43:00,36.0,5.8,30.14,NNE,15,14.0,21.0,28,0.00,,,0.00,WUHU216DAVISVP2,2013-02-24 22:43:00,
2013-02-24 15:48:00,36.1,6.7,30.14,NNE,14,2.0,21.0,29,0.00,,,0.00,WUHU216DAVISVP2,2013-02-24 22:48:00,
2013-02-24 15:53:00,37.1,7.5,30.15,North,10,4.0,15.0,29,0.00,,,0.00,WUHU216DAVISVP2,2013-02-24 22:53:00,
2013-02-24 15:58:00,37.6,6.4,30.15,North,10,11.0,13.0,27,0.00,,,0.00,WUHU216DAVISVP2,2013-02-24 22:58:00,
2013-02-24 16:03:00,37.3,7.1,30.15,NNW,331,19.0,19.0,28,0.00,,,0.00,WUHU216DAVISVP2,2013-02-24 23:03:00,
2013-02-24 16:08:00,37.1,6.8,30.15,WNW,302,4.0,19.0,28,0.00,,,0.00,WUHU216DAVISVP2,2013-02-24 23:08:00,
2013-02-24 16:13:00,37.3,6.2,30.15,NNE,27,12.0,18.0,27,0.00,,,0.00,WUHU216DAVISVP2,2013-02-24 23:13:00,
2013-02-24 16:18:00,37.2,6.1,30.15,NNE,15,3.0,18.0,27,0.00,,,0.00,WUHU216DAVISVP2,2013-02-24 23:18:00,
2013-02-24 16:23:00,37.4,6.3,30.15,North,355,9.0,17.0,27,0.00,,,0.00,WUHU216DAVISVP2,2013-02-24 23:23:00,
2013-02-24 16:28:00,37.0,6.7,30.16,North,360,8.0,18.0,28,0.00,,,0.00,WUHU216DAVISVP2,2013-02-24 23:28:00,
2013-02-24 16:33:00,36.9,6.6,30.16,NNE,15,10.0,21.0,28,0.00,,,0.00,WUHU216DAVISVP2,2013-02-24 23:33:00,
2013-02-24 16:38:00,37.0,6.7,30.16,NNW,344,18.0,21.0,28,0.00,,,0.00,WUHU216DAVISVP2,2013-02-24 23:38:00,
2013-02-24 16:43:00,36.7,6.4,30.17,NNW,329,12.0,18.0,28,0.00,,,0.00,WUHU216DAVISVP2,2013-02-24 23:43:00,
2013-02-24 16:48:00,36.9,7.4,30.17,NNW,342,5.0,17.0,29,0.00,,,0.00,WUHU216DAVISVP2,2013-02-24 23:48:00,
2013-02-24 16:53:00,37.0,8.2,30.17,North,5,5.0,16.0,30,0.00,,,0.00,WUHU216DAVISVP2,2013-02-24 23:53:00,
2013-02-24 16:58:00,37.0,7.5,30.17,NNW,331,8.0,16.0,29,0.00,,,0.00,WUHU216DAVISVP2,2013-02-24 23:58:00,
2013-02-24 17:03:00,37.0,7.5,30.18,NW,309,9.0,18.0,29,0.00,,,0.00,WUHU216DAVISVP2,2013-02-25 00:03:00,
2013-02-24 17:08:00,37.0,7.5,30.18,NNE,31,8.0,18.0,29,0.00,,,0.00,WUHU216DAVISVP2,2013-02-25 00:08:00,
2013-02-24 17:13:00,36.9,7.4,30.18,WNW,302,7.0,14.0,29,0.00,,,0.00,WUHU216DAVISVP2,2013-02-25 00:13:00,
2013-02-24 17:18:00,36.7,6.4,30.19,NNW,338,8.0,17.0,28,0.00,,,0.00,WUHU216DAVISVP2,2013-02-25 00:18:00,
2013-02-24 17:23:00,36.5,7.0,30.19,WNW,303,9.0,17.0,29,0.00,,,0.00,WUHU216DAVISVP2,2013-02-25 00:23:00,
2013-02-24 17:28:00,36.3,6.8,30.19,NW,314,14.0,18.0,29,0.00,,,0.00,WUHU216DAVISVP2,2013-02-25 00:28:00,
2013-02-24 17:33:00,36.0,6.6,30.19,North,355,6.0,18.0,29,0.00,,,0.00,WUHU216DAVISVP2,2013-02-25 00:33:00,
2013-02-24 17:38:00,35.9,6.5,30.20,NW,316,9.0,19.0,29,0.00,,,0.00,WUHU216DAVISVP2,2013-02-25 00:38:00,
2013-02-24 17:43:00,35.7,6.3,30.19,NNW,336,11.0,19.0,29,0.00,,,0.00,WUHU216DAVISVP2,2013-02-25 00:43:00,
2013-02-24 17:48:00,35.5,6.9,30.20,NNE,31,5.0,14.0,30,0.00,,,0.00,WUHU216DAVISVP2,2013-02-25 00:48:00,
2013-02-24 17:53:00,35.4,7.5,30.20,NNW,332,2.0,14.0,31,0.00,,,0.00,WUHU216DAVISVP2,2013-02-25 00:53:00,
2013-02-24 17:58:00,35.2,7.3,30.20,NNW,333,11.0,13.0,31,0.00,,,0.00,WUHU216DAVISVP2,2013-02-25 00:58:00,
2013-02-24 18:03:00,35.0,6.4,30.21,North,351,9.0,13.0,30,0.00,,,0.00,WUHU216DAVISVP2,2013-02-25 01:03:00,
2013-02-24 18:08:00,34.7,6.9,30.21,NW,322,11.0,14.0,31,0.00,,,0.00,WUHU216DAVISVP2,2013-02-25 01:08:00,
2013-02-24 18:13:00,34.3,6.5,30.21,NNW,331,2.0,14.0,31,0.00,,,0.00,WUHU216DAVISVP2,2013-02-25 01:13:00,
2013-02-24 18:18:00,33.9,6.9,30.21,NNW,334,5.0,11.0,32,0.00,,,0.00,WUHU216DAVISVP2,2013-02-25 01:18:00,
2013-02-24 18:23:00,33.7,6.7,30.21,North,360,6.0,19.0,32,0.00,,,0.00,WUHU216DAVISVP2,2013-02-25 01:23:00,
2013-02-24 18:28:00,33.5,6.7,30.21,NNW,342,8.0,19.0,32,0.00,,,0.00,WUHU216DAVISVP2,2013-02-25 01:28:00,
2013-02-24 18:33:00,33.4,7.1,30.21,NNE,31,7.0,16.0,33,0.00,,,0.00,WUHU216DAVISVP2,2013-02-25 01:33:00,
2013-02-24 18:38:00,33.3,6.6,30.21,NNW,334,6.0,16.0,32,0.00,,,0.00,WUHU216DAVISVP2,2013-02-25 01:38:00,
2013-02-24 18:43:00,33.2,6.9,30.22,NNW,328,9.0,13.0,33,0.00,,,0.00,WUHU216DAVISVP2,2013-02-25 01:43:00,
2013-02-24 18:48:00,32.9,6.9,30.22,NNW,345,6.0,13.0,33,0.00,,,0.00,WUHU216DAVISVP2,2013-02-25 01:48:00,
2013-02-24 18:53:00,32.8,6.6,30.22,North,350,10.0,12.0,33,0.00,,,0.00,WUHU216DAVISVP2,2013-02-25 01:53:00,
2013-02-24 18:58:00,32.6,6.4,30.23,NNW,329,7.0,12.0,33,0.00,,,0.00,WUHU216DAVISVP2,2013-02-25 01:58:00,
2013-02-24 19:03:00,32.5,6.3,30.23,NNE,22,10.0,12.0,33,0.00,,,0.00,WUHU216DAVISVP2,2013-02-25 02:03:00,
2013-02-24 19:08:00,32.3,7.0,30.23,NNE,25,7.0,11.0,34,0.00,,,0.00,WUHU216DAVISVP2,2013-02-25 02:08:00,
2013-02-24 19:13:00,32.1,6.6,30.23,NNE,26,6.0,12.0,34,0.00,,,0.00,WUHU216DAVISVP2,2013-02-25 02:13:00,
2013-02-24 19:18:00,32.0,6.5,30.23,NNW,335,8.0,12.0,34,0.00,,,0.00,WUHU216DAVISVP2,2013-02-25 02:18:00,
2013-02-24 19:23:00,31.8,7.0,30.23,NNE,27,7.0,10.0,35,0.00,,,0.00,WUHU216DAVISVP2,2013-02-25 02:23:00,
2013-02-24 19:28:00,31.5,6.7,30.24,NNE,26,5.0,8.0,35,0.00,,,0.00,WUHU216DAVISVP2,2013-02-25 02:28:00,
2013-02-24 19:33:00,31.2,7.3,30.24,North,5,5.0,8.0,36,0.00,,,0.00,WUHU216DAVISVP2,2013-02-25 02:33:00,
2013-02-24 19:38:00,31.0,6.9,30.23,North,5,4.0,11.0,36,0.00,,,0.00,WUHU216DAVISVP2,2013-02-25 02:38:00,
2013-02-24 19:43:00,30.7,7.3,30.24,North,350,6.0,11.0,37,0.00,,,0.00,WUHU216DAVISVP2,2013-02-25 02:43:00,
2013-02-24 19:48:00,30.4,7.2,30.24,NNE,14,6.0,8.0,37,0.00,,,0.00,WUHU216DAVISVP2,2013-02-25 02:48:00,
2013-02-24 19:53:00,30.1,7.3,30.24,NNE,27,1.0,8.0,38,0.00,,,0.00,WUHU216DAVISVP2,2013-02-25 02:53:00,
2013-02-24 19:58:00,29.9,7.9,30.24,North,360,2.0,7.0,39,0.00,,,0.00,WUHU216DAVISVP2,2013-02-25 02:58:00,
2013-02-24 20:03:00,29.8,7.0,30.24,NE,44,5.0,11.0,38,0.00,,,0.00,WUHU216DAVISVP2,2013-02-25 03:03:00,
2013-02-24 20:08:00,29.9,7.1,30.24,NNW,332,11.0,11.0,38,0.00,,,0.00,WUHU216DAVISVP2,2013-02-25 03:08:00,
2013-02-24 20:13:00,29.9,7.3,30.25,North,360,6.0,11.0,38,0.00,,,0.00,WUHU216DAVISVP2,2013-02-25 03:13:00,
2013-02-24 20:18:00,29.8,7.0,30.25,NNE,13,4.0,10.0,38,0.00,,,0.00,WUHU216DAVISVP2,2013-02-25 03:18:00,
2013-02-24 20:23:00,29.7,7.0,30.25,NNE,28,2.0,10.0,38,0.00,,,0.00,WUHU216DAVISVP2,2013-02-25 03:23:00,
2013-02-24 20:28:00,29.7,7.0,30.25,North,11,9.0,12.0,38,0.00,,,0.00,WUHU216DAVISVP2,2013-02-25 03:28:00,
2013-02-24 20:33:00,29.6,6.9,30.25,North,10,7.0,12.0,38,0.00,,,0.00,WUHU216DAVISVP2,2013-02-25 03:33:00,
2013-02-24 20:38:00,29.6,6.9,30.25,NNE,13,10.0,12.0,38,0.00,,,0.00,WUHU216DAVISVP2,2013-02-25 03:38:00,
2013-02-24 20:43:00,29.6,7.5,30.25,North,355,6.0,14.0,39,0.00,,,0.00,WUHU216DAVISVP2,2013-02-25 03:43:00,
2013-02-24 20:48:00,29.5,6.8,30.26,NNW,345,6.0,14.0,38,0.00,,,0.00,WUHU216DAVISVP2,2013-02-25 03:48:00,
2013-02-24 20:53:00,29.6,7.5,30.26,North,360,8.0,12.0,39,0.00,,,0.00,WUHU216DAVISVP2,2013-02-25 03:53:00,
2013-02-24 20:58:00,29.6,7.1,30.26,NNW,345,7.0,14.0,38,0.00,,,0.00,WUHU216DAVISVP2,2013-02-25 03:58:00,
2013-02-24 21:03:00,29.6,7.5,30.26,North,360,12.0,14.0,39,0.00,,,0.00,WUHU216DAVISVP2,2013-02-25 04:03:00,
2013-02-24 21:08:00,29.6,6.9,30.26,North,5,12.0,15.0,38,0.00,,,0.00,WUHU216DAVISVP2,2013-02-25 04:08:00,
2013-02-24 21:13:00,29.6,6.9,30.26,NW,323,11.0,15.0,38,0.00,,,0.00,WUHU216DAVISVP2,2013-02-25 04:13:00,
2013-02-24 21:18:00,29.4,6.9,30.26,NNW,330,12.0,15.0,38,0.00,,,0.00,WUHU216DAVISVP2,2013-02-25 04:18:00,
2013-02-24 21:23:00,29.4,7.3,30.26,NW,310,9.0,16.0,39,0.00,,,0.00,WUHU216DAVISVP2,2013-02-25 04:23:00,
2013-02-24 21:28:00,29.4,7.3,30.26,NNE,26,10.0,16.0,39,0.00,,,0.00,WUHU216DAVISVP2,2013-02-25 04:28:00,
2013-02-24 21:33:00,29.3,7.2,30.27,NNE,12,9.0,14.0,39,0.00,,,0.00,WUHU216DAVISVP2,2013-02-25 04:33:00,
2013-02-24 21:38:00,29.3,7.2,30.27,NNE,30,10.0,14.0,39,0.00,,,0.00,WUHU216DAVISVP2,2013-02-25 04:38:00,
2013-02-24 21:43:00,29.2,7.8,30.27,NNE,30,12.0,14.0,40,0.00,,,0.00,WUHU216DAVISVP2,2013-02-25 04:43:00,
2013-02-24 21:48:00,29.1,7.7,30.27,North,360,7.0,14.0,40,0.00,,,0.00,WUHU216DAVISVP2,2013-02-25 04:48:00,
2013-02-24 21:53:00,28.9,7.9,30.27,NNW,345,5.0,15.0,41,0.00,,,0.00,WUHU216DAVISVP2,2013-02-25 04:53:00,
2013-02-24 21:58:00,28.8,7.9,30.27,NNW,348,8.0,15.0,41,0.00,,,0.00,WUHU216DAVISVP2,2013-02-25 04:58:00,
2013-02-24 22:00:00,28.8,7.9,30.28,North,10,6.0,13.0,41,0.00,,,0.00,WUHU216DAVISVP2,2013-02-25 05:00:00,
2013-02-24 22:05:00,28.8,7.9,30.28,North,360,3.0,13.0,41,0.00,,,0.00,WUHU216DAVISVP2,2013-02-25 05:05:00,
2013-02-24 22:10:00,28.6,8.2,30.28,NNW,334,11.0,14.0,42,0.00,,,0.00,WUHU216DAVISVP2,2013-02-25 05:10:00,
2013-02-24 22:15:00,28.5,8.1,30.29,NE,45,8.0,14.0,42,0.00,,,0.00,WUHU216DAVISVP2,2013-02-25 05:15:00,
2013-02-24 22:20:00,28.3,8.1,30.29,NNE,30,5.0,11.0,42,0.00,,,0.00,WUHU216DAVISVP2,2013-02-25 05:20:00,
2013-02-24 22:25:00,28.1,7.9,30.29,NNE,31,4.0,12.0,42,0.00,,,0.00,WUHU216DAVISVP2,2013-02-25 05:25:00,
2013-02-24 22:30:00,28.0,7.8,30.29,NE,38,5.0,12.0,42,0.00,,,0.00,WUHU216DAVISVP2,2013-02-25 05:30:00,
2013-02-24 22:35:00,28.0,7.8,30.29,NE,43,4.0,12.0,42,0.00,,,0.00,WUHU216DAVISVP2,2013-02-25 05:35:00,
2013-02-24 22:40:00,28.0,7.7,30.29,North,360,9.0,13.0,42,0.00,,,0.00,WUHU216DAVISVP2,2013-02-25 05:40:00,
2013-02-24 22:45:00,28.1,7.8,30.29,North,351,9.0,14.0,42,0.00,,,0.00,WUHU216DAVISVP2,2013-02-25 05:45:00,
2013-02-24 22:50:00,28.0,7.7,30.29,North,5,7.0,14.0,42,0.00,,,0.00,WUHU216DAVISVP2,2013-02-25 05:50:00,
2013-02-24 22:55:00,28.0,7.7,30.29,NNE,15,10.0,14.0,42,0.00,,,0.00,WUHU216DAVISVP2,2013-02-25 05:55:00,
2013-02-24 23:00:00,27.9,7.6,30.29,North,11,8.0,12.0,42,0.00,,,0.00,WUHU216DAVISVP2,2013-02-25 06:00:00,
2013-02-24 23:05:00,27.8,7.5,30.29,NNE,30,9.0,12.0,42,0.00,,,0.00,WUHU216DAVISVP2,2013-02-25 06:05:00,
2013-02-24 23:10:00,27.7,7.9,30.30,NNW,342,7.0,12.0,43,0.00,,,0.00,WUHU216DAVISVP2,2013-02-25 06:10:00,
2013-02-24 23:15:00,27.6,8.0,30.30,North,5,7.0,12.0,43,0.00,,,0.00,WUHU216DAVISVP2,2013-02-25 06:15:00,
2013-02-24 23:20:00,27.4,7.7,30.30,North,360,2.0,10.0,43,0.00,,,0.00,WUHU216DAVISVP2,2013-02-25 06:20:00,
2013-02-24 23:25:00,27.3,7.7,30.31,North,360,4.0,8.0,43,0.00,,,0.00,WUHU216DAVISVP2,2013-02-25 06:25:00,
2013-02-24 23:30:00,27.1,7.9,30.31,NE,53,4.0,7.0,44,0.00,,,0.00,WUHU216DAVISVP2,2013-02-25 06:30:00,
2013-02-24 23:35:00,27.0,7.8,30.32,NNE,24,1.0,6.0,44,0.00,,,0.00,WUHU216DAVISVP2,2013-02-25 06:35:00,
2013-02-24 23:40:00,26.8,7.8,30.32,NE,39,2.0,6.0,44,0.00,,,0.00,WUHU216DAVISVP2,2013-02-25 06:40:00,
2013-02-24 23:45:00,26.7,7.5,30.32,North,9,2.0,4.0,44,0.00,,,0.00,WUHU216DAVISVP2,2013-02-25 06:45:00,
2013-02-24 23:50:00,26.6,8.1,30.32,NNE,19,4.0,5.0,45,0.00,,,0.00,WUHU216DAVISVP2,2013-02-25 06:50:00,
2013-02-24 23:55:00,26.4,7.8,30.32,NE,34,4.0,5.0,45,0.00,,,0.00,WUHU216DAVISVP2,2013-02-25 06:55:00,